Ust'- Njukzha, Russia
Current Conditions -  °F | °C
As of 1:30 PM on Sunday 23 Nov 2014 (Local Time) from UIAA Reporting Station
Clear Clear  
Wind Chill:   Ceiling: Unl
Heat Index: 14°   Visibility: 6mi
Dew Point:   Wind: 7mph
Humidity: 62%   Direction: 180°S
Pressure: 30.06"   Gusts: NA
Location:  56.58°N, 121.48°E
Report Text: UIAA 230430Z 18003MPS 9999 SKC M10/M16 Q1018 NOSIG RMK QFE70529CLRD70
Loading
Personal Weather Stations






























Interactive Weather Map New forecast layout! Learn more

10-Day Weather Forecast

Advertisements
Track Severe Weather on mobile